createdAt,value
2022-09-01T00:01:43.411Z,3.20
2022-09-01T00:06:46.192Z,3.00
2022-09-01T00:11:50.794Z,3.60
2022-09-01T00:16:55.074Z,4.00
2022-09-01T00:21:57.758Z,3.80
2022-09-01T00:27:00.481Z,3.00
2022-09-01T00:32:04.962Z,3.00
2022-09-01T00:37:07.728Z,3.60
2022-09-01T00:42:10.630Z,3.80
2022-09-01T00:47:14.875Z,3.00
2022-09-01T00:52:20.668Z,4.00
2022-09-01T00:57:23.369Z,2.40
2022-09-01T01:02:27.471Z,3.40
2022-09-01T01:07:30.338Z,3.60
2022-09-01T01:12:33.245Z,3.80
2022-09-01T01:17:37.353Z,3.00
2022-09-01T01:23:02.378Z,3.00
2022-09-01T01:28:11.910Z,2.40
2022-09-01T01:33:14.722Z,3.00
2022-09-01T01:38:22.607Z,3.40
2022-09-01T01:43:29.013Z,3.00
2022-09-01T01:48:34.651Z,3.00
2022-09-01T01:53:37.470Z,3.00
2022-09-01T01:58:41.767Z,3.00
2022-09-01T02:03:46.785Z,3.00
2022-09-01T02:08:49.554Z,3.00
2022-09-01T02:13:56.231Z,3.40
2022-09-01T02:18:59.234Z,3.40
2022-09-01T02:24:03.605Z,4.00
2022-09-01T02:29:10.057Z,4.00
2022-09-01T02:34:18.015Z,3.20
2022-09-01T02:39:23.125Z,3.20
2022-09-01T02:44:27.789Z,3.20
2022-09-01T02:49:31.353Z,3.00
2022-09-01T02:54:34.094Z,3.40
2022-09-01T02:59:43.597Z,3.80
2022-09-01T03:04:49.816Z,4.60
2022-09-01T03:09:53.190Z,4.00
2022-09-01T03:14:57.294Z,3.80
2022-09-01T03:20:00.009Z,5.00
2022-09-01T03:25:02.715Z,4.60
2022-09-01T03:30:08.370Z,4.60
2022-09-01T03:35:11.140Z,3.80
2022-09-01T03:40:14.254Z,4.60
2022-09-01T03:45:20.363Z,5.00
2022-09-01T03:50:28.057Z,4.00
2022-09-01T03:55:33.943Z,4.00
2022-09-01T04:00:39.602Z,4.00
2022-09-01T04:05:44.199Z,4.00
2022-09-01T04:10:54.398Z,4.00
2022-09-01T04:15:59.380Z,4.00
2022-09-01T04:21:02.174Z,4.00
2022-09-01T04:26:09.448Z,5.00
2022-09-01T04:31:19.449Z,4.00
2022-09-01T04:36:25.940Z,5.00
2022-09-01T04:41:31.876Z,4.60
2022-09-01T04:46:42.208Z,5.60
2022-09-01T04:51:53.409Z,5.00
2022-09-01T04:56:57.000Z,5.00
2022-09-01T05:02:01.786Z,5.00
2022-09-01T05:07:05.687Z,5.00
2022-09-01T05:12:16.044Z,5.00
2022-09-01T05:17:23.328Z,5.20
2022-09-01T05:22:26.989Z,5.80
2022-09-01T05:27:34.849Z,6.80
2022-09-01T05:32:40.385Z,4.40
2022-09-01T05:37:44.739Z,5.80
2022-09-01T05:42:47.832Z,6.20
2022-09-01T05:47:52.451Z,5.80
2022-09-01T05:52:55.917Z,6.40
2022-09-01T05:57:58.863Z,6.20
2022-09-01T06:03:07.694Z,5.80
2022-09-01T06:08:14.903Z,4.00
2022-09-01T06:13:21.861Z,6.00
2022-09-01T06:18:29.989Z,4.00
2022-09-01T06:23:34.333Z,4.00
2022-09-01T06:28:41.005Z,5.80
2022-09-01T06:33:45.637Z,4.80
2022-09-01T06:38:50.064Z,4.00
2022-09-01T06:43:54.037Z,8.00
2022-09-01T06:48:59.077Z,7.40
2022-09-01T06:54:03.379Z,4.40
2022-09-01T06:59:10.050Z,4.80
2022-09-01T07:04:17.224Z,5.20
2022-09-01T07:20:24.436Z,17.80
2022-09-01T07:26:00.372Z,4.00
2022-09-01T07:37:15.151Z,6.00
2022-09-01T07:42:56.125Z,5.80
2022-09-01T07:47:53.404Z,6.20
2022-09-01T07:53:00.604Z,4.20
2022-09-01T07:58:03.557Z,4.00
2022-09-01T08:03:07.066Z,4.40
2022-09-01T08:08:18.865Z,4.00
2022-09-01T08:13:22.495Z,5.40
2022-09-01T08:18:25.675Z,5.80
2022-09-01T08:23:30.188Z,6.80
2022-09-01T08:28:33.610Z,5.80
2022-09-01T08:33:36.449Z,4.00
2022-09-01T08:38:40.907Z,4.00
2022-09-01T08:43:51.682Z,3.80
2022-09-01T08:54:45.523Z,4.00
2022-09-01T08:59:50.271Z,4.00
2022-09-01T09:05:22.419Z,3.60
2022-09-01T09:10:27.638Z,4.60
2022-09-01T09:15:34.993Z,3.00
2022-09-01T09:20:38.374Z,3.00
2022-09-01T09:25:44.823Z,4.00
2022-09-01T09:30:48.720Z,3.60
2022-09-01T09:35:51.486Z,2.40
2022-09-01T09:41:20.340Z,3.00
2022-09-01T09:46:27.853Z,3.20
2022-09-01T09:51:30.548Z,3.00
2022-09-01T09:56:36.063Z,3.00
2022-09-01T10:01:39.558Z,3.00
2022-09-01T10:06:46.810Z,3.40
2022-09-01T10:11:52.540Z,4.60
2022-09-01T10:16:58.158Z,3.00
2022-09-01T10:22:01.530Z,3.40
2022-09-01T10:27:17.810Z,4.00
2022-09-01T10:32:35.262Z,3.80
2022-09-01T10:37:41.426Z,3.00
2022-09-01T10:42:46.957Z,3.00
2022-09-01T10:47:49.727Z,2.60
2022-09-01T10:53:04.956Z,3.00
2022-09-01T11:03:56.549Z,3.00
2022-09-01T11:09:01.151Z,4.00
2022-09-01T11:14:11.445Z,3.40
2022-09-01T11:19:34.456Z,3.80
2022-09-01T11:25:00.204Z,3.00
2022-09-01T11:30:10.149Z,3.20
2022-09-01T11:35:16.723Z,3.00
2022-09-01T11:40:21.518Z,2.60
2022-09-01T11:45:28.282Z,4.00
2022-09-01T11:50:32.126Z,4.00
2022-09-01T11:55:36.293Z,3.00
2022-09-01T12:00:41.292Z,3.00
2022-09-01T12:05:44.123Z,2.00
2022-09-01T12:10:47.100Z,2.80
2022-09-01T12:16:16.950Z,2.00
2022-09-01T12:21:20.672Z,2.40
2022-09-01T12:26:25.531Z,2.00
2022-09-01T12:31:29.575Z,2.00
2022-09-01T12:36:33.605Z,2.00
2022-09-01T12:41:38.974Z,2.00
2022-09-01T12:46:44.864Z,2.40
2022-09-01T12:51:48.722Z,1.40
2022-09-01T12:56:51.903Z,2.60
2022-09-01T13:01:56.064Z,2.00
2022-09-01T13:07:03.120Z,8.00
2022-09-01T13:12:14.117Z,9.20
2022-09-01T13:17:19.447Z,11.60
2022-09-01T13:22:22.272Z,20.00
2022-09-01T13:27:24.958Z,18.40
2022-09-01T13:32:29.197Z,17.60
2022-09-01T13:37:32.008Z,16.20
2022-09-01T13:42:34.798Z,10.00
2022-09-01T13:48:15.265Z,10.00
2022-09-01T13:53:02.024Z,10.00
2022-09-01T13:58:04.906Z,10.80
2022-09-01T14:03:11.097Z,8.00
2022-09-01T14:08:14.530Z,5.80
2022-09-01T14:13:17.292Z,4.80
2022-09-01T14:18:21.790Z,5.80
2022-09-01T14:23:25.034Z,4.40
2022-09-01T14:28:27.735Z,4.00
2022-09-01T14:33:32.303Z,4.00
2022-09-01T14:38:35.143Z,4.40
2022-09-01T14:43:38.675Z,4.60
2022-09-01T14:48:42.871Z,3.40
2022-09-01T14:53:45.719Z,4.00
2022-09-01T14:58:48.730Z,3.00
2022-09-01T15:03:52.852Z,4.00
2022-09-01T15:08:55.647Z,3.80
2022-09-01T15:13:58.752Z,3.20
2022-09-01T15:19:02.761Z,3.00
2022-09-01T15:24:09.020Z,4.00
2022-09-01T15:29:13.125Z,3.20
2022-09-01T15:34:18.187Z,3.00
2022-09-01T15:39:21.296Z,3.20
2022-09-01T15:44:23.995Z,4.00
2022-09-01T15:49:28.140Z,2.60
2022-09-01T15:54:30.947Z,3.00
2022-09-01T15:59:34.134Z,3.00
2022-09-01T16:04:39.999Z,4.00
2022-09-01T16:09:42.740Z,2.60
2022-09-01T16:14:45.573Z,2.60
2022-09-01T16:19:53.450Z,3.00
2022-09-01T16:24:57.863Z,3.00
2022-09-01T16:30:03.203Z,3.00
2022-09-01T16:35:08.435Z,3.00
2022-09-01T16:40:17.964Z,3.00
2022-09-01T16:45:26.989Z,3.00
2022-09-01T16:50:38.129Z,3.00
2022-09-01T16:55:48.191Z,3.00
2022-09-01T17:00:57.722Z,2.40
2022-09-01T17:06:11.829Z,2.40
2022-09-01T17:11:19.156Z,3.00
2022-09-01T17:16:24.015Z,4.00
2022-09-01T17:21:33.064Z,3.40
2022-09-01T17:26:40.194Z,4.20
2022-09-01T17:31:49.193Z,4.00
2022-09-01T17:36:56.034Z,4.80
2022-09-01T17:42:00.499Z,3.20
2022-09-01T17:47:08.313Z,4.00
2022-09-01T17:52:16.062Z,3.00
2022-09-01T17:57:22.037Z,4.00
2022-09-01T18:02:37.282Z,5.00
2022-09-01T18:07:50.921Z,4.00
2022-09-01T18:13:01.793Z,4.80
2022-09-01T18:18:22.527Z,4.00
2022-09-01T18:23:27.218Z,4.00
2022-09-01T18:28:29.909Z,4.60
2022-09-01T18:33:36.692Z,3.20
2022-09-01T18:38:45.956Z,3.60
2022-09-01T18:43:50.693Z,5.00
2022-09-01T18:48:59.866Z,4.00
2022-09-01T18:54:06.114Z,5.20
2022-09-01T18:59:28.235Z,4.60
2022-09-01T19:04:41.103Z,3.60
2022-09-01T19:09:52.156Z,4.40
2022-09-01T19:14:58.849Z,4.00
2022-09-01T19:20:04.244Z,4.20
2022-09-01T19:25:32.979Z,4.00
2022-09-01T19:30:36.362Z,4.00
2022-09-01T19:35:39.091Z,4.00
2022-09-01T19:40:43.603Z,5.00
2022-09-01T19:45:53.306Z,4.00
2022-09-01T19:50:57.115Z,5.00
2022-09-01T19:56:04.189Z,4.60
2022-09-01T20:01:06.988Z,5.00
2022-09-01T20:06:10.844Z,6.40
2022-09-01T20:11:18.795Z,7.00
2022-09-01T20:16:25.597Z,6.00
2022-09-01T20:21:28.361Z,5.40
2022-09-01T20:26:36.074Z,6.00
2022-09-01T20:31:40.625Z,6.00
2022-09-01T20:36:45.731Z,6.80
2022-09-01T20:41:51.957Z,6.40
2022-09-01T20:46:54.635Z,5.80
2022-09-01T20:52:00.546Z,5.60
2022-09-01T20:57:10.814Z,6.20
2022-09-01T21:02:31.181Z,5.00
2022-09-01T21:07:36.707Z,5.60
2022-09-01T21:12:44.401Z,5.80
2022-09-01T21:17:53.216Z,7.00
2022-09-01T21:23:01.222Z,7.60
2022-09-01T21:28:08.212Z,6.80
2022-09-01T21:33:10.957Z,7.40
2022-09-01T21:38:13.700Z,7.00
2022-09-01T21:43:19.350Z,6.00
2022-09-01T21:48:22.218Z,6.00
2022-09-01T21:53:31.381Z,6.00
2022-09-01T21:58:37.678Z,5.20
2022-09-01T22:03:40.552Z,5.40
2022-09-01T22:08:43.258Z,5.60
2022-09-01T22:13:47.242Z,5.00
2022-09-01T22:18:49.902Z,5.00
2022-09-01T22:23:52.781Z,6.40
2022-09-01T22:28:56.926Z,5.20
2022-09-01T22:33:59.657Z,5.80
2022-09-01T22:39:02.331Z,5.20
2022-09-01T22:44:06.483Z,5.00
2022-09-01T22:49:09.402Z,5.60
2022-09-01T22:54:12.684Z,4.80
2022-09-01T22:59:16.912Z,5.00
2022-09-01T23:04:19.765Z,4.80
2022-09-01T23:09:22.457Z,5.60
2022-09-01T23:14:26.666Z,6.00
2022-09-01T23:19:29.372Z,4.00
2022-09-01T23:24:32.086Z,5.00
2022-09-01T23:29:36.155Z,5.00
2022-09-01T23:34:39.612Z,3.20
2022-09-01T23:39:42.411Z,5.00
2022-09-01T23:44:46.538Z,4.00
2022-09-01T23:49:49.349Z,4.00
2022-09-01T23:54:52.221Z,4.00
2022-09-01T23:59:57.918Z,4.20
